createdAt,value
2022-10-17T00:00:11.631Z,2.53
2022-10-17T00:00:23.760Z,2.40
2022-10-17T00:00:35.959Z,2.60
2022-10-17T00:00:48.345Z,2.70
2022-10-17T00:01:00.271Z,2.60
2022-10-17T00:01:13.210Z,2.50
2022-10-17T00:01:25.180Z,2.40
2022-10-17T00:01:37.160Z,2.38
2022-10-17T00:01:49.248Z,2.30
2022-10-17T00:02:01.296Z,2.35
2022-10-17T00:02:13.201Z,2.40
2022-10-17T00:02:25.100Z,2.38
2022-10-17T00:02:36.980Z,2.25
2022-10-17T00:02:48.905Z,2.10
2022-10-17T00:03:00.873Z,1.98
2022-10-17T00:03:13.007Z,2.15
2022-10-17T00:03:24.934Z,2.40
2022-10-17T00:03:38.856Z,2.40
2022-10-17T00:03:50.823Z,2.20
2022-10-17T00:04:02.743Z,2.25
2022-10-17T00:04:14.629Z,2.60
2022-10-17T00:04:26.601Z,2.80
2022-10-17T00:04:38.648Z,2.78
2022-10-17T00:04:50.794Z,2.53
2022-10-17T00:05:02.909Z,2.50
2022-10-17T00:05:15.118Z,2.50
2022-10-17T00:05:27.403Z,2.50
2022-10-17T00:05:45.122Z,2.55
2022-10-17T00:05:58.322Z,2.50
2022-10-17T00:06:14.603Z,2.60
2022-10-17T00:06:26.482Z,2.35
2022-10-17T00:06:39.465Z,2.30
2022-10-17T00:06:51.379Z,2.33
2022-10-17T00:07:03.309Z,2.25
2022-10-17T00:07:15.186Z,2.28
2022-10-17T00:07:27.348Z,2.47
2022-10-17T00:07:39.366Z,2.63
2022-10-17T00:07:52.399Z,2.50
2022-10-17T00:08:04.573Z,2.10
2022-10-17T00:08:18.013Z,2.00
2022-10-17T00:08:29.905Z,2.20
2022-10-17T00:08:43.445Z,2.30
2022-10-17T00:08:55.348Z,2.35
2022-10-17T00:09:07.346Z,2.20
2022-10-17T00:09:19.218Z,2.20
2022-10-17T00:09:31.112Z,2.33
2022-10-17T00:09:44.118Z,2.50
2022-10-17T00:09:56.001Z,2.60
2022-10-17T00:10:08.673Z,2.80
2022-10-17T00:10:21.650Z,2.85
2022-10-17T00:10:33.562Z,2.70
2022-10-17T00:10:46.234Z,2.45
2022-10-17T00:11:05.186Z,2.33
2022-10-17T00:11:20.581Z,2.35
2022-10-17T00:11:32.502Z,2.45
2022-10-17T00:11:44.423Z,2.33
2022-10-17T00:11:56.352Z,2.30
2022-10-17T00:12:08.395Z,2.40
2022-10-17T00:12:20.307Z,2.53
2022-10-17T00:12:32.327Z,2.40
2022-10-17T00:12:44.223Z,2.38
2022-10-17T00:12:56.113Z,2.60
2022-10-17T00:13:09.050Z,2.60
2022-10-17T00:13:21.034Z,2.30
2022-10-17T00:13:47.359Z,2.50
2022-10-17T00:13:59.271Z,2.50
2022-10-17T00:14:11.324Z,2.60
2022-10-17T00:14:23.224Z,2.38
2022-10-17T00:14:35.675Z,2.22
2022-10-17T00:14:47.602Z,2.28
2022-10-17T00:14:59.489Z,2.30
2022-10-17T00:15:14.801Z,2.20
2022-10-17T00:15:26.823Z,2.20
2022-10-17T00:15:38.692Z,2.30
2022-10-17T00:15:50.572Z,2.33
2022-10-17T00:16:02.530Z,2.45
2022-10-17T00:16:15.992Z,2.38
2022-10-17T00:16:36.476Z,2.30
2022-10-17T00:16:48.382Z,2.20
2022-10-17T00:17:00.278Z,2.10
2022-10-17T00:17:12.279Z,2.17
2022-10-17T00:17:24.280Z,2.47
2022-10-17T00:17:36.214Z,2.50
2022-10-17T00:17:48.438Z,2.28
2022-10-17T00:18:02.110Z,2.22
2022-10-17T00:18:14.010Z,2.22
2022-10-17T00:18:26.452Z,2.20
2022-10-17T00:18:38.505Z,2.25
2022-10-17T00:18:50.421Z,2.47
2022-10-17T00:19:03.515Z,2.42
2022-10-17T00:19:15.449Z,2.40
2022-10-17T00:19:27.341Z,2.33
2022-10-17T00:19:39.221Z,2.30
2022-10-17T00:19:51.953Z,2.13
2022-10-17T00:20:04.340Z,2.15
2022-10-17T00:20:16.553Z,2.17
2022-10-17T00:20:30.353Z,2.42
2022-10-17T00:20:42.501Z,2.65
2022-10-17T00:20:54.450Z,2.20
2022-10-17T00:21:06.618Z,2.05
2022-10-17T00:21:19.395Z,2.15
2022-10-17T00:21:31.532Z,2.30
2022-10-17T00:21:43.439Z,2.28
2022-10-17T00:21:55.474Z,2.20
2022-10-17T00:22:07.450Z,2.20
2022-10-17T00:22:19.374Z,2.20
2022-10-17T00:22:31.303Z,2.22
2022-10-17T00:22:43.418Z,2.22
2022-10-17T00:22:55.347Z,2.00
2022-10-17T00:23:07.216Z,1.92
2022-10-17T00:23:19.864Z,1.90
2022-10-17T00:23:33.040Z,1.98
2022-10-17T00:23:46.187Z,2.13
2022-10-17T00:23:59.468Z,2.40
2022-10-17T00:24:11.379Z,2.22
2022-10-17T00:24:23.256Z,2.30
2022-10-17T00:24:35.142Z,2.70
2022-10-17T00:24:47.013Z,2.70
2022-10-17T00:24:58.903Z,2.35
2022-10-17T00:25:11.644Z,2.30
2022-10-17T00:25:23.537Z,2.40
2022-10-17T00:25:35.546Z,2.38
2022-10-17T00:25:47.451Z,2.40
2022-10-17T00:26:02.113Z,2.30
2022-10-17T00:26:15.269Z,2.30
2022-10-17T00:26:29.612Z,2.40
2022-10-17T00:26:42.144Z,2.35
2022-10-17T00:26:54.038Z,2.25
2022-10-17T00:27:06.003Z,2.30
2022-10-17T00:27:17.874Z,2.30
2022-10-17T00:27:30.013Z,2.50
2022-10-17T00:27:42.489Z,2.55
2022-10-17T00:27:54.374Z,2.58
2022-10-17T00:28:10.055Z,2.38
2022-10-17T00:28:21.963Z,2.10
2022-10-17T00:28:34.026Z,2.20
2022-10-17T00:28:47.764Z,2.38
2022-10-17T00:28:59.781Z,2.60
2022-10-17T00:29:11.720Z,2.45
2022-10-17T00:29:23.663Z,2.42
2022-10-17T00:29:35.537Z,2.55
2022-10-17T00:29:51.878Z,2.67
2022-10-17T00:30:05.065Z,2.10
2022-10-17T00:30:18.241Z,2.28
2022-10-17T00:30:30.188Z,2.60
2022-10-17T00:30:42.144Z,2.80
2022-10-17T00:31:01.644Z,2.60
2022-10-17T00:31:13.645Z,2.63
2022-10-17T00:31:25.592Z,2.60
2022-10-17T00:31:37.480Z,2.50
2022-10-17T00:31:49.452Z,2.42
2022-10-17T00:32:01.397Z,2.50
2022-10-17T00:32:13.276Z,2.60
2022-10-17T00:32:25.448Z,2.47
2022-10-17T00:32:37.641Z,2.28
2022-10-17T00:32:49.579Z,2.10
2022-10-17T00:33:01.500Z,2.53
2022-10-17T00:33:13.414Z,2.80
2022-10-17T00:33:26.368Z,2.67
2022-10-17T00:33:39.185Z,2.20
2022-10-17T00:33:51.724Z,2.20
2022-10-17T00:34:03.633Z,2.42
2022-10-17T00:34:15.580Z,2.45
2022-10-17T00:34:29.234Z,2.22
2022-10-17T00:34:41.195Z,2.10
2022-10-17T00:34:53.096Z,2.45
2022-10-17T00:35:05.437Z,2.72
2022-10-17T00:35:17.431Z,2.75
2022-10-17T00:35:29.388Z,2.47
2022-10-17T00:35:41.298Z,2.50
2022-10-17T00:36:03.542Z,2.33
2022-10-17T00:36:18.471Z,2.38
2022-10-17T00:36:34.814Z,2.53
2022-10-17T00:36:46.697Z,2.38
2022-10-17T00:36:58.692Z,2.40
2022-10-17T00:37:10.851Z,2.90
2022-10-17T00:37:22.740Z,2.75
2022-10-17T00:37:34.988Z,2.40
2022-10-17T00:37:46.907Z,2.45
2022-10-17T00:37:58.850Z,2.40
2022-10-17T00:38:10.752Z,2.30
2022-10-17T00:38:22.698Z,2.28
2022-10-17T00:38:35.618Z,2.45
2022-10-17T00:38:52.209Z,2.40
2022-10-17T00:39:04.396Z,2.35
2022-10-17T00:39:16.329Z,2.38
2022-10-17T00:39:28.233Z,2.40
2022-10-17T00:39:40.285Z,2.40
2022-10-17T00:39:52.284Z,2.40
2022-10-17T00:40:06.701Z,2.40
2022-10-17T00:40:18.747Z,2.33
2022-10-17T00:40:30.673Z,2.17
2022-10-17T00:40:42.678Z,2.25
2022-10-17T00:41:09.149Z,2.47
2022-10-17T00:41:24.229Z,2.47
2022-10-17T00:41:36.143Z,2.67
2022-10-17T00:42:19.446Z,2.60
2022-10-17T00:42:31.548Z,2.38
2022-10-17T00:42:43.558Z,2.50
2022-10-17T00:42:55.418Z,2.58
2022-10-17T00:43:16.976Z,2.50
2022-10-17T00:43:29.693Z,2.40
2022-10-17T00:44:01.163Z,2.53
2022-10-17T00:44:31.163Z,2.50
2022-10-17T00:44:46.932Z,2.40
2022-10-17T00:45:12.565Z,2.15
2022-10-17T00:45:27.777Z,2.10
2022-10-17T00:45:39.732Z,2.13
2022-10-17T00:45:51.607Z,2.40
2022-10-17T00:46:03.504Z,2.45
2022-10-17T00:46:15.621Z,2.50
2022-10-17T00:46:32.892Z,2.40
2022-10-17T00:46:44.818Z,2.42
2022-10-17T00:46:58.325Z,2.30
2022-10-17T00:47:13.949Z,2.17
2022-10-17T00:47:25.996Z,2.20
2022-10-17T00:47:38.210Z,2.25
2022-10-17T00:48:03.815Z,2.40
2022-10-17T00:48:18.960Z,2.38
2022-10-17T00:48:34.332Z,2.28
2022-10-17T00:48:48.865Z,2.17
2022-10-17T00:49:06.001Z,2.00
2022-10-17T00:49:18.634Z,2.00
2022-10-17T00:49:34.364Z,2.20
2022-10-17T00:49:47.578Z,2.40
2022-10-17T00:49:59.897Z,2.42
2022-10-17T00:50:13.340Z,2.33
2022-10-17T00:50:25.771Z,2.42
2022-10-17T00:50:41.627Z,2.42
2022-10-17T00:50:53.620Z,2.25
2022-10-17T00:51:06.429Z,2.10
2022-10-17T00:51:22.557Z,2.20
2022-10-17T00:51:40.698Z,2.28
2022-10-17T00:52:06.046Z,2.28
2022-10-17T00:52:22.177Z,2.30
2022-10-17T00:52:34.564Z,2.10
2022-10-17T00:52:48.127Z,2.10
2022-10-17T00:53:05.156Z,2.28
2022-10-17T00:53:18.395Z,2.30
2022-10-17T00:53:30.504Z,2.22
2022-10-17T00:53:42.803Z,2.30
2022-10-17T00:53:55.911Z,2.50
2022-10-17T00:54:09.327Z,2.55
2022-10-17T00:54:25.047Z,2.53
2022-10-17T00:54:43.972Z,2.47
2022-10-17T00:55:04.084Z,2.40
2022-10-17T00:55:25.731Z,2.20
2022-10-17T00:56:03.932Z,2.00
2022-10-17T00:56:16.709Z,2.13
2022-10-17T00:56:29.748Z,2.17
2022-10-17T00:56:42.325Z,2.20
2022-10-17T00:56:54.858Z,2.30
2022-10-17T00:57:07.181Z,2.30
2022-10-17T00:57:19.160Z,2.30
2022-10-17T00:57:32.288Z,2.30
2022-10-17T00:57:45.404Z,2.20
2022-10-17T00:57:59.749Z,2.00
2022-10-17T00:58:11.770Z,2.15
2022-10-17T00:58:24.025Z,2.20
2022-10-17T00:58:36.000Z,2.10
2022-10-17T00:58:48.475Z,2.08
2022-10-17T00:59:00.888Z,2.17
2022-10-17T00:59:14.493Z,2.20
2022-10-17T00:59:28.317Z,2.10
2022-10-17T00:59:43.675Z,2.10
2022-10-17T00:59:57.634Z,2.25
2022-10-17T01:00:10.971Z,2.30
2022-10-17T01:00:24.172Z,2.22
2022-10-17T01:00:36.932Z,2.33
2022-10-17T01:00:48.842Z,2.30
2022-10-17T01:01:02.733Z,2.10
2022-10-17T01:01:15.253Z,2.10
2022-10-17T01:01:27.337Z,2.10
2022-10-17T01:01:41.534Z,2.10
2022-10-17T01:02:11.514Z,2.15
2022-10-17T01:02:23.664Z,2.10
2022-10-17T01:02:35.724Z,2.20
2022-10-17T01:02:48.146Z,2.28
2022-10-17T01:03:00.087Z,2.40
2022-10-17T01:03:12.089Z,2.55
2022-10-17T01:03:24.197Z,2.33
2022-10-17T01:03:36.125Z,2.28
2022-10-17T01:03:47.996Z,2.10
2022-10-17T01:03:59.995Z,2.20
2022-10-17T01:04:12.011Z,2.25
2022-10-17T01:04:23.921Z,2.25
2022-10-17T01:04:38.746Z,2.20
2022-10-17T01:04:55.025Z,2.58
2022-10-17T01:05:08.476Z,2.80
2022-10-17T01:05:21.168Z,2.33
2022-10-17T01:05:33.220Z,2.33
2022-10-17T01:05:46.467Z,2.30
2022-10-17T01:05:58.390Z,2.38
2022-10-17T01:06:10.258Z,2.30
2022-10-17T01:06:22.916Z,2.40
2022-10-17T01:06:34.820Z,2.30
2022-10-17T01:06:46.699Z,2.38
2022-10-17T01:06:58.644Z,2.47
2022-10-17T01:07:11.119Z,2.40
2022-10-17T01:07:23.221Z,2.08
2022-10-17T01:07:37.354Z,2.05
2022-10-17T01:07:52.631Z,2.08
2022-10-17T01:08:05.735Z,2.13
2022-10-17T01:08:17.745Z,2.20
2022-10-17T01:08:29.819Z,2.30
2022-10-17T01:08:41.800Z,2.40
2022-10-17T01:08:54.039Z,2.30
2022-10-17T01:09:06.013Z,2.20
2022-10-17T01:09:18.242Z,2.10
2022-10-17T01:09:30.450Z,2.15
2022-10-17T01:09:44.931Z,2.17
2022-10-17T01:09:57.017Z,2.13
2022-10-17T01:10:10.654Z,2.28
2022-10-17T01:10:34.867Z,2.33
2022-10-17T01:11:08.410Z,2.38
2022-10-17T01:11:29.150Z,2.55
2022-10-17T01:11:55.531Z,2.25
2022-10-17T01:12:28.800Z,2.30
2022-10-17T01:12:52.943Z,2.20
2022-10-17T01:13:19.194Z,2.70
2022-10-17T01:13:40.944Z,2.33
2022-10-17T01:13:57.005Z,2.42
2022-10-17T01:14:22.566Z,2.22
2022-10-17T01:15:01.596Z,2.15
2022-10-17T01:15:32.836Z,2.00
2022-10-17T01:16:05.807Z,2.10
2022-10-17T01:16:52.155Z,2.22
2022-10-17T01:17:11.291Z,2.30
2022-10-17T01:17:34.957Z,2.30
2022-10-17T01:17:57.357Z,2.40
2022-10-17T01:18:24.314Z,2.35
2022-10-17T01:19:13.660Z,2.40
2022-10-17T01:19:40.917Z,2.15
2022-10-17T01:20:22.050Z,2.40
2022-10-17T01:20:53.047Z,2.40
2022-10-17T01:21:16.842Z,2.35
2022-10-17T01:22:17.824Z,2.45
2022-10-17T01:22:52.482Z,2.03
2022-10-17T01:23:16.623Z,2.25
2022-10-17T01:24:04.579Z,2.33
2022-10-17T01:24:22.444Z,2.28
2022-10-17T01:24:55.780Z,2.30
2022-10-17T01:25:49.680Z,2.25
2022-10-17T01:26:32.506Z,2.40
2022-10-17T01:26:55.134Z,2.30
2022-10-17T01:27:33.382Z,2.20
2022-10-17T01:28:04.295Z,2.08
2022-10-17T01:28:38.111Z,2.05
2022-10-17T01:29:14.749Z,2.30
2022-10-17T01:30:05.659Z,2.13
2022-10-17T01:30:37.251Z,2.17
2022-10-17T01:31:10.330Z,1.88
2022-10-17T01:31:27.136Z,2.38
2022-10-17T01:31:47.315Z,2.05
2022-10-17T01:32:16.360Z,2.30
2022-10-17T01:32:37.269Z,2.10
2022-10-17T01:32:58.544Z,2.10
2022-10-17T01:33:26.119Z,2.30
2022-10-17T01:33:56.532Z,2.30
2022-10-17T01:34:21.132Z,2.30
2022-10-17T01:34:36.099Z,2.20
2022-10-17T01:34:50.663Z,2.20
2022-10-17T01:35:25.249Z,2.40
2022-10-17T01:35:53.641Z,2.50
2022-10-17T01:36:17.356Z,2.42
2022-10-17T01:36:43.289Z,2.47
2022-10-17T01:37:00.752Z,2.30
2022-10-17T01:37:30.523Z,2.10
2022-10-17T01:37:45.098Z,2.03
2022-10-17T01:38:09.187Z,2.15
2022-10-17T01:38:25.477Z,2.00
2022-10-17T01:38:48.829Z,1.95
2022-10-17T01:39:10.582Z,2.22
2022-10-17T01:39:41.638Z,2.25
2022-10-17T01:40:13.374Z,2.17
2022-10-17T01:40:29.638Z,2.10
2022-10-17T01:40:48.317Z,2.28
2022-10-17T01:41:16.806Z,2.35
2022-10-17T01:41:37.912Z,2.10
2022-10-17T01:41:58.350Z,2.30
2022-10-17T01:42:18.939Z,2.13
2022-10-17T01:42:58.053Z,2.05
2022-10-17T01:43:50.966Z,2.03
2022-10-17T01:44:14.060Z,2.10
2022-10-17T01:44:39.156Z,2.03
2022-10-17T01:45:16.858Z,2.30
2022-10-17T01:45:37.173Z,2.47
2022-10-17T01:46:03.501Z,2.30
2022-10-17T01:46:35.360Z,2.10
2022-10-17T01:46:51.027Z,2.00
2022-10-17T01:47:10.683Z,2.03
2022-10-17T01:47:28.114Z,2.33
2022-10-17T01:47:41.972Z,2.13
2022-10-17T01:47:56.894Z,1.90
2022-10-17T01:48:17.987Z,2.00
2022-10-17T01:48:36.991Z,2.22
2022-10-17T01:48:48.964Z,2.30
2022-10-17T01:49:02.723Z,2.40
2022-10-17T01:49:18.688Z,2.45
2022-10-17T01:49:33.309Z,2.40
2022-10-17T01:49:46.917Z,2.47
2022-10-17T01:50:04.612Z,2.30
2022-10-17T01:50:39.415Z,2.20
2022-10-17T01:50:59.802Z,2.28
2022-10-17T01:51:23.180Z,2.30
2022-10-17T01:51:43.170Z,2.45
2022-10-17T01:52:02.655Z,2.25
2022-10-17T01:52:45.299Z,2.40
2022-10-17T01:53:03.548Z,2.20
2022-10-17T01:53:22.215Z,2.20
2022-10-17T01:53:39.440Z,2.20
2022-10-17T01:54:01.491Z,2.42
2022-10-17T01:54:21.299Z,2.40
2022-10-17T01:54:41.389Z,2.50
2022-10-17T01:55:03.119Z,2.50
2022-10-17T01:55:30.568Z,2.35
2022-10-17T01:55:45.988Z,2.30
2022-10-17T01:56:01.988Z,2.38
2022-10-17T01:56:16.713Z,2.22
2022-10-17T01:56:31.815Z,2.10
2022-10-17T01:56:46.049Z,2.03
2022-10-17T01:57:02.879Z,2.20
2022-10-17T01:57:39.952Z,2.40
2022-10-17T01:57:57.416Z,2.17
2022-10-17T01:58:20.850Z,2.20
2022-10-17T01:58:38.496Z,2.30
2022-10-17T01:58:56.329Z,2.40
2022-10-17T01:59:19.839Z,2.40
2022-10-17T01:59:44.201Z,2.65
2022-10-17T01:59:57.249Z,2.40
2022-10-17T02:00:13.608Z,2.30
2022-10-17T02:00:27.732Z,2.35
2022-10-17T02:00:42.925Z,2.22
2022-10-17T02:00:58.454Z,2.20
2022-10-17T02:01:12.535Z,2.28
2022-10-17T02:01:26.625Z,2.50
2022-10-17T02:01:41.525Z,2.38
2022-10-17T02:01:57.114Z,2.08
2022-10-17T02:02:10.230Z,2.10
2022-10-17T02:02:24.404Z,2.13
2022-10-17T02:02:36.880Z,2.20
2022-10-17T02:02:58.596Z,2.30
2022-10-17T02:03:16.460Z,2.20
2022-10-17T02:03:29.078Z,2.45
2022-10-17T02:03:43.535Z,2.50
2022-10-17T02:03:58.027Z,2.20
2022-10-17T02:04:11.302Z,2.40
2022-10-17T02:04:24.619Z,2.50
2022-10-17T02:04:37.113Z,2.33
2022-10-17T02:04:51.907Z,2.30
2022-10-17T02:05:04.435Z,2.22
2022-10-17T02:05:21.599Z,2.30
2022-10-17T02:05:40.217Z,2.65
2022-10-17T02:05:52.257Z,2.60
2022-10-17T02:06:04.527Z,2.30
2022-10-17T02:06:16.540Z,2.33
2022-10-17T02:06:28.460Z,2.30
2022-10-17T02:06:40.384Z,2.30
2022-10-17T02:06:52.260Z,2.20
2022-10-17T02:07:09.495Z,2.35
2022-10-17T02:07:21.373Z,2.40
2022-10-17T02:07:33.261Z,2.40
2022-10-17T02:07:45.140Z,2.40
2022-10-17T02:07:57.003Z,2.33
2022-10-17T02:08:09.035Z,2.28
2022-10-17T02:08:42.283Z,2.30
2022-10-17T02:08:54.253Z,2.40
2022-10-17T02:09:24.022Z,2.40
2022-10-17T02:09:36.284Z,2.38
2022-10-17T02:09:48.195Z,2.40
2022-10-17T02:10:00.079Z,2.50
2022-10-17T02:10:21.843Z,2.58
2022-10-17T02:10:38.967Z,2.30
2022-10-17T02:11:00.666Z,2.13
2022-10-17T02:11:20.110Z,2.40
2022-10-17T02:11:31.959Z,2.33
2022-10-17T02:11:52.982Z,2.30
2022-10-17T02:12:40.685Z,2.30
2022-10-17T02:13:04.529Z,2.53
2022-10-17T02:13:32.741Z,2.40
2022-10-17T02:14:23.069Z,2.17
2022-10-17T02:15:07.049Z,2.40
2022-10-17T02:15:34.181Z,2.63
2022-10-17T02:15:54.662Z,2.33
2022-10-17T02:16:29.274Z,2.40
2022-10-17T02:17:13.117Z,2.30
2022-10-17T02:18:01.579Z,2.65
2022-10-17T02:18:19.269Z,2.67
2022-10-17T02:18:52.520Z,2.80
2022-10-17T02:19:18.077Z,2.30
2022-10-17T02:19:54.499Z,2.60
2022-10-17T02:20:09.079Z,2.45
2022-10-17T02:20:40.818Z,2.60
2022-10-17T02:21:05.590Z,2.60
2022-10-17T02:21:23.360Z,3.10
2022-10-17T02:21:44.252Z,2.90
2022-10-17T02:22:06.255Z,2.50
2022-10-17T02:22:35.769Z,2.67
2022-10-17T02:22:57.608Z,2.83
2022-10-17T02:23:20.805Z,2.90
2022-10-17T02:23:46.675Z,2.70
2022-10-17T02:24:06.540Z,2.80
2022-10-17T02:24:35.958Z,2.70
2022-10-17T02:25:14.434Z,2.83
2022-10-17T02:25:50.859Z,3.20
2022-10-17T02:26:25.751Z,2.53
2022-10-17T02:26:59.803Z,3.10
2022-10-17T02:27:23.635Z,2.65
2022-10-17T02:28:18.450Z,3.00
2022-10-17T02:28:55.286Z,2.70
2022-10-17T02:29:14.993Z,2.92
2022-10-17T02:29:33.096Z,2.78
2022-10-17T02:29:48.812Z,2.78
2022-10-17T02:30:10.227Z,2.90
2022-10-17T02:30:33.985Z,2.88
2022-10-17T02:30:48.647Z,2.97
2022-10-17T02:31:29.694Z,2.85
2022-10-17T02:31:48.669Z,3.13
2022-10-17T02:32:07.262Z,2.90
2022-10-17T02:32:28.515Z,3.10
2022-10-17T02:32:50.433Z,2.92
2022-10-17T02:33:14.125Z,3.03
2022-10-17T02:33:34.387Z,2.78
2022-10-17T02:33:52.637Z,2.67
2022-10-17T02:34:24.335Z,2.65
2022-10-17T02:34:41.568Z,2.50
2022-10-17T02:34:57.719Z,2.70
2022-10-17T02:35:13.601Z,2.88
2022-10-17T02:35:30.970Z,2.88
2022-10-17T02:35:50.032Z,2.90
2022-10-17T02:36:08.761Z,2.80
2022-10-17T02:36:24.408Z,2.63
2022-10-17T02:36:40.945Z,2.63
2022-10-17T02:36:58.127Z,2.80
2022-10-17T02:37:15.128Z,3.00
2022-10-17T02:37:31.248Z,3.15
2022-10-17T02:37:47.491Z,2.80
2022-10-17T02:38:00.702Z,2.65
2022-10-17T02:38:14.487Z,2.78
2022-10-17T02:38:29.267Z,3.00
2022-10-17T02:38:43.885Z,2.95
2022-10-17T02:38:57.156Z,3.03
2022-10-17T02:39:11.245Z,2.83
2022-10-17T02:39:25.023Z,2.65
2022-10-17T02:39:39.943Z,2.90
2022-10-17T02:39:53.517Z,2.78
2022-10-17T02:40:06.775Z,2.72
2022-10-17T02:40:22.736Z,2.80
2022-10-17T02:40:36.832Z,2.70
2022-10-17T02:40:51.312Z,2.88
2022-10-17T02:41:07.421Z,2.90
2022-10-17T02:41:20.304Z,2.70
2022-10-17T02:41:33.732Z,2.60
2022-10-17T02:41:46.644Z,2.60
2022-10-17T02:42:03.030Z,2.50
2022-10-17T02:42:16.064Z,2.53
2022-10-17T02:42:29.443Z,2.65
2022-10-17T02:42:44.935Z,2.67
2022-10-17T02:42:59.231Z,2.80
2022-10-17T02:43:11.759Z,2.83
2022-10-17T02:43:23.899Z,2.78
2022-10-17T02:43:37.795Z,2.53
2022-10-17T02:43:50.930Z,2.60
2022-10-17T02:44:05.171Z,2.58
2022-10-17T02:44:17.431Z,2.50
2022-10-17T02:44:31.831Z,2.30
2022-10-17T02:44:45.664Z,2.28
2022-10-17T02:45:02.535Z,2.50
2022-10-17T02:45:15.740Z,2.70
2022-10-17T02:45:29.744Z,2.55
2022-10-17T02:45:41.795Z,2.63
2022-10-17T02:45:54.401Z,2.72
2022-10-17T02:46:08.075Z,2.70
2022-10-17T02:46:23.243Z,2.60
2022-10-17T02:46:38.341Z,2.40
2022-10-17T02:46:59.275Z,2.50
2022-10-17T02:47:46.666Z,2.65
2022-10-17T02:48:19.764Z,2.90
2022-10-17T02:48:38.729Z,2.60
2022-10-17T02:48:53.291Z,2.70
2022-10-17T02:49:11.521Z,2.53
2022-10-17T02:49:28.201Z,2.60
2022-10-17T02:49:45.323Z,2.60
2022-10-17T02:49:58.724Z,2.67
2022-10-17T02:50:11.569Z,2.63
2022-10-17T02:50:31.890Z,2.50
2022-10-17T02:50:56.574Z,2.60
2022-10-17T02:51:22.549Z,2.75
2022-10-17T02:52:04.885Z,2.60
2022-10-17T02:52:48.275Z,2.80
2022-10-17T02:53:08.485Z,2.63
2022-10-17T02:53:28.092Z,2.70
2022-10-17T02:53:49.692Z,2.70
2022-10-17T02:54:18.348Z,2.85
2022-10-17T02:54:35.852Z,2.83
2022-10-17T02:55:17.190Z,3.03
2022-10-17T02:55:33.972Z,2.80
2022-10-17T02:55:56.892Z,2.72
2022-10-17T02:56:17.443Z,2.40
2022-10-17T02:56:34.992Z,2.30
2022-10-17T02:56:54.996Z,2.40
2022-10-17T02:57:06.817Z,2.50
2022-10-17T02:57:24.886Z,2.53
2022-10-17T02:57:41.133Z,2.55
2022-10-17T02:57:56.750Z,2.40
2022-10-17T02:58:26.786Z,2.30
2022-10-17T02:58:40.195Z,2.95
2022-10-17T02:58:55.856Z,2.65
2022-10-17T02:59:12.320Z,2.55
2022-10-17T02:59:26.451Z,2.47
2022-10-17T02:59:41.428Z,2.60
2022-10-17T02:59:54.544Z,2.65
2022-10-17T03:00:11.148Z,2.63
2022-10-17T03:00:24.908Z,2.75
2022-10-17T03:00:38.896Z,2.90
2022-10-17T03:00:52.267Z,2.70
2022-10-17T03:01:05.097Z,2.60
2022-10-17T03:01:18.822Z,2.70
2022-10-17T03:01:30.932Z,2.50
2022-10-17T03:01:43.820Z,2.42
2022-10-17T03:01:55.957Z,2.60
2022-10-17T03:02:07.920Z,2.75
2022-10-17T03:02:19.833Z,2.90
2022-10-17T03:02:49.614Z,3.05
2022-10-17T03:03:01.535Z,2.50
2022-10-17T03:03:27.992Z,2.40
2022-10-17T03:03:39.877Z,2.72
2022-10-17T03:03:51.895Z,2.70
2022-10-17T03:04:09.141Z,2.55
2022-10-17T03:04:21.242Z,2.80
2022-10-17T03:04:34.396Z,2.80
2022-10-17T03:04:47.129Z,2.67
2022-10-17T03:04:58.999Z,2.45
2022-10-17T03:05:14.061Z,2.45
2022-10-17T03:05:28.987Z,2.65
2022-10-17T03:05:40.921Z,2.90
2022-10-17T03:05:53.335Z,3.10
2022-10-17T03:06:05.329Z,3.05
2022-10-17T03:06:17.300Z,3.00
2022-10-17T03:06:29.170Z,3.03
2022-10-17T03:06:41.568Z,3.05
2022-10-17T03:06:53.523Z,2.83
2022-10-17T03:07:05.408Z,2.78
2022-10-17T03:07:17.309Z,2.78
2022-10-17T03:07:29.205Z,2.75
2022-10-17T03:07:41.096Z,2.75
2022-10-17T03:07:54.182Z,2.67
2022-10-17T03:08:06.118Z,2.83
2022-10-17T03:08:18.583Z,2.85
2022-10-17T03:08:30.565Z,2.80
2022-10-17T03:08:42.528Z,2.85
2022-10-17T03:08:54.442Z,2.80
2022-10-17T03:09:07.303Z,2.78
2022-10-17T03:09:19.169Z,2.60
2022-10-17T03:09:31.066Z,2.70
2022-10-17T03:09:42.941Z,2.80
2022-10-17T03:09:54.824Z,2.90
2022-10-17T03:10:06.948Z,2.88
2022-10-17T03:10:20.037Z,2.80
2022-10-17T03:10:31.939Z,2.90
2022-10-17T03:10:43.865Z,2.88
2022-10-17T03:10:55.904Z,2.78
2022-10-17T03:11:07.793Z,2.72
2022-10-17T03:11:19.665Z,2.78
2022-10-17T03:11:31.549Z,2.80
2022-10-17T03:11:43.418Z,2.80
2022-10-17T03:11:55.361Z,2.92
2022-10-17T03:12:07.320Z,2.60
2022-10-17T03:12:19.193Z,2.45
2022-10-17T03:12:31.548Z,2.40
2022-10-17T03:12:43.679Z,2.60
2022-10-17T03:12:55.798Z,2.65
2022-10-17T03:13:07.737Z,2.70
2022-10-17T03:13:19.694Z,2.75
2022-10-17T03:13:33.818Z,2.78
2022-10-17T03:13:47.009Z,2.67
2022-10-17T03:13:58.939Z,2.67
2022-10-17T03:14:10.867Z,2.72
2022-10-17T03:14:22.784Z,2.70
2022-10-17T03:14:34.676Z,2.60
2022-10-17T03:14:46.537Z,2.70
2022-10-17T03:14:58.560Z,2.60
2022-10-17T03:15:11.301Z,2.67
2022-10-17T03:15:23.310Z,2.70
2022-10-17T03:15:35.189Z,2.67
2022-10-17T03:15:47.283Z,2.65
2022-10-17T03:15:59.126Z,2.58
2022-10-17T03:16:11.000Z,2.50
2022-10-17T03:16:22.868Z,2.58
2022-10-17T03:16:34.745Z,2.45
2022-10-17T03:16:46.597Z,2.30
2022-10-17T03:16:58.489Z,2.30
2022-10-17T03:17:10.391Z,2.50
2022-10-17T03:17:22.323Z,2.67
2022-10-17T03:17:35.762Z,2.63
2022-10-17T03:17:47.749Z,2.38
2022-10-17T03:17:59.673Z,2.30
2022-10-17T03:18:11.537Z,2.38
2022-10-17T03:18:23.500Z,2.33
2022-10-17T03:18:35.380Z,2.40
2022-10-17T03:18:50.017Z,2.83
2022-10-17T03:19:02.276Z,2.95
2022-10-17T03:19:14.153Z,2.58
2022-10-17T03:19:26.091Z,2.92
2022-10-17T03:19:38.037Z,3.10
2022-10-17T03:19:49.910Z,3.20
2022-10-17T03:20:02.255Z,2.70
2022-10-17T03:20:14.269Z,2.65
2022-10-17T03:20:26.155Z,2.75
2022-10-17T03:20:38.011Z,2.97
2022-10-17T03:20:50.096Z,2.75
2022-10-17T03:21:01.966Z,2.47
2022-10-17T03:21:13.831Z,2.33
2022-10-17T03:21:25.706Z,2.30
2022-10-17T03:21:38.147Z,2.42
2022-10-17T03:21:50.026Z,2.50
2022-10-17T03:22:01.935Z,2.50
2022-10-17T03:22:13.828Z,2.58
2022-10-17T03:22:25.741Z,2.60
2022-10-17T03:22:37.665Z,2.70
2022-10-17T03:22:49.538Z,2.50
2022-10-17T03:23:01.743Z,2.53
2022-10-17T03:23:13.650Z,2.65
2022-10-17T03:23:25.556Z,2.80
2022-10-17T03:23:37.410Z,2.70
2022-10-17T03:23:49.318Z,2.57
2022-10-17T03:24:01.184Z,2.63
2022-10-17T03:24:13.064Z,2.78
2022-10-17T03:24:24.988Z,2.90
2022-10-17T03:24:36.866Z,3.00
2022-10-17T03:24:48.770Z,2.80
2022-10-17T03:25:00.677Z,2.60
2022-10-17T03:25:12.549Z,2.60
2022-10-17T03:25:24.728Z,2.67
2022-10-17T03:25:36.583Z,2.58
2022-10-17T03:25:48.467Z,2.50
2022-10-17T03:26:06.550Z,2.70
2022-10-17T03:26:18.470Z,2.90
2022-10-17T03:26:30.754Z,2.88
2022-10-17T03:26:42.655Z,2.63
2022-10-17T03:26:54.580Z,2.67
2022-10-17T03:27:06.504Z,2.80
2022-10-17T03:27:18.417Z,2.85
2022-10-17T03:27:30.569Z,2.70
2022-10-17T03:27:42.776Z,2.60
2022-10-17T03:27:55.239Z,2.90
2022-10-17T03:28:07.237Z,3.03
2022-10-17T03:28:19.173Z,3.03
2022-10-17T03:28:31.098Z,2.95
2022-10-17T03:28:43.125Z,2.78
2022-10-17T03:28:55.897Z,2.70
2022-10-17T03:29:07.846Z,2.60
2022-10-17T03:29:19.742Z,2.70
2022-10-17T03:29:31.634Z,2.78
2022-10-17T03:29:43.490Z,2.80
2022-10-17T03:29:55.556Z,2.88
2022-10-17T03:30:08.408Z,2.70
2022-10-17T03:30:20.750Z,2.80
2022-10-17T03:30:33.374Z,3.17
2022-10-17T03:30:45.224Z,3.20
2022-10-17T03:30:57.108Z,2.95
2022-10-17T03:31:15.615Z,2.90
2022-10-17T03:31:27.584Z,2.85
2022-10-17T03:31:39.478Z,2.90
2022-10-17T03:31:51.403Z,3.00
2022-10-17T03:32:03.406Z,3.03
2022-10-17T03:32:15.348Z,3.17
2022-10-17T03:32:27.285Z,2.97
2022-10-17T03:32:39.189Z,2.72
2022-10-17T03:32:51.187Z,2.72
2022-10-17T03:33:03.150Z,3.13
2022-10-17T03:33:15.053Z,3.17
2022-10-17T03:33:27.079Z,3.47
2022-10-17T03:33:39.029Z,3.10
2022-10-17T03:33:50.917Z,2.92
2022-10-17T03:34:03.526Z,2.60
2022-10-17T03:34:17.602Z,2.60
2022-10-17T03:34:29.526Z,2.50
2022-10-17T03:34:41.535Z,2.47
2022-10-17T03:34:53.411Z,2.50
2022-10-17T03:35:05.616Z,2.53
2022-10-17T03:35:17.597Z,2.65
2022-10-17T03:35:29.479Z,2.80
2022-10-17T03:35:41.452Z,2.80
2022-10-17T03:35:53.365Z,2.75
2022-10-17T03:36:07.369Z,2.97
2022-10-17T03:36:19.635Z,2.90
2022-10-17T03:36:31.578Z,2.80
2022-10-17T03:36:43.616Z,2.67
2022-10-17T03:36:55.545Z,2.60
2022-10-17T03:37:07.821Z,2.60
2022-10-17T03:37:22.621Z,2.60
2022-10-17T03:37:34.522Z,2.60
2022-10-17T03:37:46.393Z,2.92
2022-10-17T03:37:58.296Z,3.20
2022-10-17T03:38:10.187Z,3.05
2022-10-17T03:38:22.069Z,2.80
2022-10-17T03:38:35.476Z,2.60
2022-10-17T03:38:47.986Z,2.55